ΕΜΥ, Εθνική Μετεωρολογική Υπηρεσία - Δελτία Καιρού, Προγνώσεις

ΑΕΡΟΝΑΥΤΙΛΙΑ

GREEK AIRPORTS CODES

TAF LGTT 100400Z 1006/1015 19012KT 9000 FEW014 SCT020 PROB30 TEMPO 1006/1012 5000 RA SCT014 BKN025 TEMPO 1012/1015 18015G25KT=

EUROPEAN AIRPORTS CODES

LIRF 100550Z 16009KT 8000 FEW018 17/16 Q0999 NOSIG=